Bangui, Central African Republic
Current Conditions -  °F | °C
As of 9:00 AM on Sunday 26 Oct 2014 (Local Time) from FEFF Reporting Station
Broken Clouds Broken Clouds  
Wind Chill: 81°   Ceiling: 15000
Heat Index: 85°   Visibility: 6mi
Dew Point: 72°   Wind: 2mph
Humidity: 74%   Direction: NA
Pressure: 29.91"   Gusts: NA
Location:  4.36°N, 18.56°E
Report Text: FEFF 260800Z VRB02KT 9999 FEW010 BKN150 27/22 Q1013 NOSIG
Loading
Personal Weather Stations






























Interactive Weather Map New forecast layout! Learn more

10-Day Weather Forecast

Advertisements
Track Severe Weather on mobile